sensor_id;sensor_type;location;lat;lon;timestamp;temperature;humidity
21770;DHT22;11046;49.558;8.674;2022-11-04T00:01:51;11.00;99.90
21770;DHT22;11046;49.558;8.674;2022-11-04T00:04:52;10.90;99.90
21770;DHT22;11046;49.558;8.674;2022-11-04T00:07:52;10.90;99.90
21770;DHT22;11046;49.558;8.674;2022-11-04T00:11:19;11.00;99.90
21770;DHT22;11046;49.558;8.674;2022-11-04T00:14:39;10.90;99.90
21770;DHT22;11046;49.558;8.674;2022-11-04T00:17:39;10.80;99.90
21770;DHT22;11046;49.558;8.674;2022-11-04T00:20:40;10.90;99.90
21770;DHT22;11046;49.558;8.674;2022-11-04T00:23:59;10.80;99.90
21770;DHT22;11046;49.558;8.674;2022-11-04T00:27:19;10.90;99.90
21770;DHT22;11046;49.558;8.674;2022-11-04T00:30:39;10.90;99.90
21770;DHT22;11046;49.558;8.674;2022-11-04T00:33:39;10.90;99.90
21770;DHT22;11046;49.558;8.674;2022-11-04T00:36:40;10.80;99.90
21770;DHT22;11046;49.558;8.674;2022-11-04T00:39:41;10.80;99.90
21770;DHT22;11046;49.558;8.674;2022-11-04T00:42:43;10.80;99.90
21770;DHT22;11046;49.558;8.674;2022-11-04T00:45:44;10.70;99.90
21770;DHT22;11046;49.558;8.674;2022-11-04T00:48:45;10.80;99.90
21770;DHT22;11046;49.558;8.674;2022-11-04T00:51:45;10.80;99.90
21770;DHT22;11046;49.558;8.674;2022-11-04T00:54:46;10.70;99.90
21770;DHT22;11046;49.558;8.674;2022-11-04T00:57:47;10.60;99.90
21770;DHT22;11046;49.558;8.674;2022-11-04T01:00:47;10.60;99.90
21770;DHT22;11046;49.558;8.674;2022-11-04T01:03:50;10.70;99.90
21770;DHT22;11046;49.558;8.674;2022-11-04T01:06:51;10.70;99.90
21770;DHT22;11046;49.558;8.674;2022-11-04T01:09:51;10.70;99.90
21770;DHT22;11046;49.558;8.674;2022-11-04T01:12:52;10.60;99.90
21770;DHT22;11046;49.558;8.674;2022-11-04T01:15:53;10.60;99.90
21770;DHT22;11046;49.558;8.674;2022-11-04T01:18:53;10.50;99.90
21770;DHT22;11046;49.558;8.674;2022-11-04T01:21:54;10.50;99.90
21770;DHT22;11046;49.558;8.674;2022-11-04T01:24:55;10.50;99.90
21770;DHT22;11046;49.558;8.674;2022-11-04T01:27:55;10.60;99.90
21770;DHT22;11046;49.558;8.674;2022-11-04T01:30:56;10.60;99.90
21770;DHT22;11046;49.558;8.674;2022-11-04T01:33:57;10.60;99.90
21770;DHT22;11046;49.558;8.674;2022-11-04T01:36:58;10.60;99.90
21770;DHT22;11046;49.558;8.674;2022-11-04T01:39:58;10.50;99.90
21770;DHT22;11046;49.558;8.674;2022-11-04T01:42:59;10.50;99.90
21770;DHT22;11046;49.558;8.674;2022-11-04T01:46:00;10.50;99.90
21770;DHT22;11046;49.558;8.674;2022-11-04T01:49:28;10.50;99.90
21770;DHT22;11046;49.558;8.674;2022-11-04T01:52:34;10.60;99.90
21770;DHT22;11046;49.558;8.674;2022-11-04T01:55:41;10.50;99.90
21770;DHT22;11046;49.558;8.674;2022-11-04T01:58:47;10.50;99.90
21770;DHT22;11046;49.558;8.674;2022-11-04T02:01:49;10.50;99.90
21770;DHT22;11046;49.558;8.674;2022-11-04T02:04:50;10.50;99.90
21770;DHT22;11046;49.558;8.674;2022-11-04T02:07:54;10.50;99.90
21770;DHT22;11046;49.558;8.674;2022-11-04T02:11:00;10.50;99.90
21770;DHT22;11046;49.558;8.674;2022-11-04T02:14:01;10.50;99.90
21770;DHT22;11046;49.558;8.674;2022-11-04T02:24:13;10.50;99.90
21770;DHT22;11046;49.558;8.674;2022-11-04T02:27:42;10.60;99.90
21770;DHT22;11046;49.558;8.674;2022-11-04T02:34:18;10.50;99.90
21770;DHT22;11046;49.558;8.674;2022-11-04T02:40:59;10.40;99.90
21770;DHT22;11046;49.558;8.674;2022-11-04T02:44:20;10.40;99.90
21770;DHT22;11046;49.558;8.674;2022-11-04T02:47:24;10.40;99.90
21770;DHT22;11046;49.558;8.674;2022-11-04T02:50:31;10.40;99.90
21770;DHT22;11046;49.558;8.674;2022-11-04T02:53:46;10.50;99.90
21770;DHT22;11046;49.558;8.674;2022-11-04T02:56:51;10.50;99.90
21770;DHT22;11046;49.558;8.674;2022-11-04T03:00:00;10.50;99.90
21770;DHT22;11046;49.558;8.674;2022-11-04T03:03:07;10.60;99.90
21770;DHT22;11046;49.558;8.674;2022-11-04T03:06:11;10.40;99.90
21770;DHT22;11046;49.558;8.674;2022-11-04T03:09:14;10.40;99.90
21770;DHT22;11046;49.558;8.674;2022-11-04T03:12:18;10.30;99.90
21770;DHT22;11046;49.558;8.674;2022-11-04T03:15:28;10.40;99.90
21770;DHT22;11046;49.558;8.674;2022-11-04T03:18:35;10.40;99.90
21770;DHT22;11046;49.558;8.674;2022-11-04T03:21:49;10.40;99.90
21770;DHT22;11046;49.558;8.674;2022-11-04T03:24:51;10.40;99.90
21770;DHT22;11046;49.558;8.674;2022-11-04T03:31:03;10.40;99.90
21770;DHT22;11046;49.558;8.674;2022-11-04T03:34:05;10.40;99.90
21770;DHT22;11046;49.558;8.674;2022-11-04T03:37:06;10.40;99.90
21770;DHT22;11046;49.558;8.674;2022-11-04T03:40:07;10.40;99.90
21770;DHT22;11046;49.558;8.674;2022-11-04T03:43:18;10.30;99.90
21770;DHT22;11046;49.558;8.674;2022-11-04T03:46:20;10.30;99.90
21770;DHT22;11046;49.558;8.674;2022-11-04T03:49:22;10.30;99.90
21770;DHT22;11046;49.558;8.674;2022-11-04T03:52:24;10.40;99.90
21770;DHT22;11046;49.558;8.674;2022-11-04T04:02:17;10.30;99.90
21770;DHT22;11046;49.558;8.674;2022-11-04T04:05:25;10.20;99.90
21770;DHT22;11046;49.558;8.674;2022-11-04T04:08:46;10.20;99.90
21770;DHT22;11046;49.558;8.674;2022-11-04T04:11:54;10.10;99.90
21770;DHT22;11046;49.558;8.674;2022-11-04T04:15:02;10.00;99.90
21770;DHT22;11046;49.558;8.674;2022-11-04T04:18:08;9.90;99.90
21770;DHT22;11046;49.558;8.674;2022-11-04T04:21:16;9.80;99.90
21770;DHT22;11046;49.558;8.674;2022-11-04T04:24:20;9.80;99.90
21770;DHT22;11046;49.558;8.674;2022-11-04T04:27:43;9.70;99.90
21770;DHT22;11046;49.558;8.674;2022-11-04T04:30:45;9.60;99.90
21770;DHT22;11046;49.558;8.674;2022-11-04T04:33:45;9.50;99.90
21770;DHT22;11046;49.558;8.674;2022-11-04T04:36:54;9.50;99.90
21770;DHT22;11046;49.558;8.674;2022-11-04T04:39:58;9.50;99.90
21770;DHT22;11046;49.558;8.674;2022-11-04T04:43:18;9.40;99.90
21770;DHT22;11046;49.558;8.674;2022-11-04T04:46:39;9.40;99.90
21770;DHT22;11046;49.558;8.674;2022-11-04T04:49:59;9.40;99.90
21770;DHT22;11046;49.558;8.674;2022-11-04T04:53:00;9.50;99.90
21770;DHT22;11046;49.558;8.674;2022-11-04T04:56:03;9.40;99.90
21770;DHT22;11046;49.558;8.674;2022-11-04T04:59:04;9.40;99.90
21770;DHT22;11046;49.558;8.674;2022-11-04T05:02:05;9.30;99.90
21770;DHT22;11046;49.558;8.674;2022-11-04T05:05:06;9.30;99.90
21770;DHT22;11046;49.558;8.674;2022-11-04T05:08:07;9.20;99.90
21770;DHT22;11046;49.558;8.674;2022-11-04T05:11:08;9.20;99.90
21770;DHT22;11046;49.558;8.674;2022-11-04T05:14:09;9.30;99.90
21770;DHT22;11046;49.558;8.674;2022-11-04T05:17:09;9.30;99.90
21770;DHT22;11046;49.558;8.674;2022-11-04T05:20:11;9.20;99.90
21770;DHT22;11046;49.558;8.674;2022-11-04T05:23:12;9.20;99.90
21770;DHT22;11046;49.558;8.674;2022-11-04T05:26:14;9.20;99.90
21770;DHT22;11046;49.558;8.674;2022-11-04T05:29:14;9.20;99.90
21770;DHT22;11046;49.558;8.674;2022-11-04T05:32:15;9.20;99.90
21770;DHT22;11046;49.558;8.674;2022-11-04T05:35:15;9.30;99.90
21770;DHT22;11046;49.558;8.674;2022-11-04T05:38:16;9.30;99.90
21770;DHT22;11046;49.558;8.674;2022-11-04T05:41:17;9.30;99.90
21770;DHT22;11046;49.558;8.674;2022-11-04T05:44:27;9.30;99.90
21770;DHT22;11046;49.558;8.674;2022-11-04T05:47:28;9.40;99.90
21770;DHT22;11046;49.558;8.674;2022-11-04T05:50:30;9.50;99.90
21770;DHT22;11046;49.558;8.674;2022-11-04T05:53:31;9.50;99.90
21770;DHT22;11046;49.558;8.674;2022-11-04T05:56:31;9.60;99.90
21770;DHT22;11046;49.558;8.674;2022-11-04T05:59:32;9.60;99.90
21770;DHT22;11046;49.558;8.674;2022-11-04T06:02:32;9.60;99.90
21770;DHT22;11046;49.558;8.674;2022-11-04T06:05:33;9.60;99.90
21770;DHT22;11046;49.558;8.674;2022-11-04T06:08:33;9.70;99.90
21770;DHT22;11046;49.558;8.674;2022-11-04T06:11:34;9.60;99.80
21770;DHT22;11046;49.558;8.674;2022-11-04T06:14:36;9.70;99.90
21770;DHT22;11046;49.558;8.674;2022-11-04T06:17:38;9.70;99.90
21770;DHT22;11046;49.558;8.674;2022-11-04T06:20:39;9.70;99.80
21770;DHT22;11046;49.558;8.674;2022-11-04T06:23:40;9.70;99.80
21770;DHT22;11046;49.558;8.674;2022-11-04T06:26:41;9.60;99.80
21770;DHT22;11046;49.558;8.674;2022-11-04T06:29:42;9.70;99.80
21770;DHT22;11046;49.558;8.674;2022-11-04T06:32:42;9.60;99.80
21770;DHT22;11046;49.558;8.674;2022-11-04T06:35:43;9.70;99.70
21770;DHT22;11046;49.558;8.674;2022-11-04T06:38:44;9.70;99.90
21770;DHT22;11046;49.558;8.674;2022-11-04T06:41:45;9.70;99.60
21770;DHT22;11046;49.558;8.674;2022-11-04T06:44:45;9.80;99.50
21770;DHT22;11046;49.558;8.674;2022-11-04T06:47:46;9.80;99.40
21770;DHT22;11046;49.558;8.674;2022-11-04T06:50:46;9.80;99.30
21770;DHT22;11046;49.558;8.674;2022-11-04T06:53:47;9.90;99.30
21770;DHT22;11046;49.558;8.674;2022-11-04T07:00:04;9.90;99.20
21770;DHT22;11046;49.558;8.674;2022-11-04T07:03:05;9.90;99.10
21770;DHT22;11046;49.558;8.674;2022-11-04T07:06:08;10.00;99.10
21770;DHT22;11046;49.558;8.674;2022-11-04T07:09:11;10.00;99.00
21770;DHT22;11046;49.558;8.674;2022-11-04T07:12:12;10.00;99.10
21770;DHT22;11046;49.558;8.674;2022-11-04T07:15:13;10.00;99.10
21770;DHT22;11046;49.558;8.674;2022-11-04T07:18:14;10.00;99.20
21770;DHT22;11046;49.558;8.674;2022-11-04T07:21:14;9.90;99.30
21770;DHT22;11046;49.558;8.674;2022-11-04T07:24:15;10.00;99.30
21770;DHT22;11046;49.558;8.674;2022-11-04T07:27:45;10.00;99.20
21770;DHT22;11046;49.558;8.674;2022-11-04T07:30:46;10.00;99.10
21770;DHT22;11046;49.558;8.674;2022-11-04T07:33:46;10.10;99.10
21770;DHT22;11046;49.558;8.674;2022-11-04T07:36:49;10.10;99.00
21770;DHT22;11046;49.558;8.674;2022-11-04T07:39:49;10.00;99.00
21770;DHT22;11046;49.558;8.674;2022-11-04T07:42:50;10.10;99.00
21770;DHT22;11046;49.558;8.674;2022-11-04T07:46:03;10.20;99.00
21770;DHT22;11046;49.558;8.674;2022-11-04T07:49:04;10.20;98.90
21770;DHT22;11046;49.558;8.674;2022-11-04T07:52:04;10.20;99.00
21770;DHT22;11046;49.558;8.674;2022-11-04T07:55:05;10.20;98.90
21770;DHT22;11046;49.558;8.674;2022-11-04T07:58:06;10.30;98.90
21770;DHT22;11046;49.558;8.674;2022-11-04T08:01:11;10.40;98.80
21770;DHT22;11046;49.558;8.674;2022-11-04T08:04:12;10.40;98.60
21770;DHT22;11046;49.558;8.674;2022-11-04T08:07:13;10.40;98.60
21770;DHT22;11046;49.558;8.674;2022-11-04T08:10:13;10.50;98.60
21770;DHT22;11046;49.558;8.674;2022-11-04T08:13:14;10.60;98.60
21770;DHT22;11046;49.558;8.674;2022-11-04T08:16:17;10.60;98.50
21770;DHT22;11046;49.558;8.674;2022-11-04T08:19:19;10.60;98.50
21770;DHT22;11046;49.558;8.674;2022-11-04T08:22:19;10.70;98.50
21770;DHT22;11046;49.558;8.674;2022-11-04T08:25:20;10.80;98.30
21770;DHT22;11046;49.558;8.674;2022-11-04T08:28:21;10.80;98.30
21770;DHT22;11046;49.558;8.674;2022-11-04T08:31:25;10.90;98.30
21770;DHT22;11046;49.558;8.674;2022-11-04T08:34:26;10.90;98.20
21770;DHT22;11046;49.558;8.674;2022-11-04T08:37:27;10.90;98.20
21770;DHT22;11046;49.558;8.674;2022-11-04T08:40:27;11.00;98.10
21770;DHT22;11046;49.558;8.674;2022-11-04T08:43:28;11.10;98.10
21770;DHT22;11046;49.558;8.674;2022-11-04T08:46:33;11.10;98.10
21770;DHT22;11046;49.558;8.674;2022-11-04T08:49:40;11.10;98.10
21770;DHT22;11046;49.558;8.674;2022-11-04T08:52:41;11.20;98.10
21770;DHT22;11046;49.558;8.674;2022-11-04T08:55:41;11.20;98.10
21770;DHT22;11046;49.558;8.674;2022-11-04T08:58:42;11.20;98.10
21770;DHT22;11046;49.558;8.674;2022-11-04T09:01:43;11.30;98.00
21770;DHT22;11046;49.558;8.674;2022-11-04T09:04:43;11.30;98.00
21770;DHT22;11046;49.558;8.674;2022-11-04T09:07:44;11.40;97.90
21770;DHT22;11046;49.558;8.674;2022-11-04T09:10:46;11.40;97.80
21770;DHT22;11046;49.558;8.674;2022-11-04T09:13:47;11.50;97.80
21770;DHT22;11046;49.558;8.674;2022-11-04T09:16:48;11.50;98.20
21770;DHT22;11046;49.558;8.674;2022-11-04T09:19:48;11.60;97.80
21770;DHT22;11046;49.558;8.674;2022-11-04T09:22:49;11.70;97.70
21770;DHT22;11046;49.558;8.674;2022-11-04T09:25:50;11.70;97.50
21770;DHT22;11046;49.558;8.674;2022-11-04T09:28:55;11.70;97.40
21770;DHT22;11046;49.558;8.674;2022-11-04T09:31:55;11.70;97.30
21770;DHT22;11046;49.558;8.674;2022-11-04T09:34:56;11.70;97.30
21770;DHT22;11046;49.558;8.674;2022-11-04T09:37:58;11.70;97.30
21770;DHT22;11046;49.558;8.674;2022-11-04T09:40:59;11.70;97.30
21770;DHT22;11046;49.558;8.674;2022-11-04T09:44:24;11.70;97.30
21770;DHT22;11046;49.558;8.674;2022-11-04T09:47:27;11.70;97.20
21770;DHT22;11046;49.558;8.674;2022-11-04T09:50:50;11.70;97.30
21770;DHT22;11046;49.558;8.674;2022-11-04T09:54:07;11.80;97.00
21770;DHT22;11046;49.558;8.674;2022-11-04T09:57:16;11.90;97.10
21770;DHT22;11046;49.558;8.674;2022-11-04T10:00:17;12.10;97.00
21770;DHT22;11046;49.558;8.674;2022-11-04T10:07:05;12.30;96.50
21770;DHT22;11046;49.558;8.674;2022-11-04T10:23:33;12.80;96.10
21770;DHT22;11046;49.558;8.674;2022-11-04T10:26:50;12.80;96.10
21770;DHT22;11046;49.558;8.674;2022-11-04T10:29:59;12.90;95.90
21770;DHT22;11046;49.558;8.674;2022-11-04T10:33:16;12.90;95.90
21770;DHT22;11046;49.558;8.674;2022-11-04T10:36:20;12.80;95.70
21770;DHT22;11046;49.558;8.674;2022-11-04T10:39:35;12.70;95.70
21770;DHT22;11046;49.558;8.674;2022-11-04T10:42:36;12.60;95.50
21770;DHT22;11046;49.558;8.674;2022-11-04T10:45:53;12.50;95.60
21770;DHT22;11046;49.558;8.674;2022-11-04T10:52:24;12.30;95.70
21770;DHT22;11046;49.558;8.674;2022-11-04T10:55:53;12.30;95.70
21770;DHT22;11046;49.558;8.674;2022-11-04T10:59:00;12.40;95.70
21770;DHT22;11046;49.558;8.674;2022-11-04T11:02:04;12.40;95.70
21770;DHT22;11046;49.558;8.674;2022-11-04T11:08:31;12.70;95.50
21770;DHT22;11046;49.558;8.674;2022-11-04T11:14:41;12.90;95.70
21770;DHT22;11046;49.558;8.674;2022-11-04T11:17:42;12.90;95.70
21770;DHT22;11046;49.558;8.674;2022-11-04T11:24:18;13.00;95.30
21770;DHT22;11046;49.558;8.674;2022-11-04T11:27:20;12.90;95.20
21770;DHT22;11046;49.558;8.674;2022-11-04T11:33:53;12.90;95.30
21770;DHT22;11046;49.558;8.674;2022-11-04T11:36:55;12.90;95.30
21770;DHT22;11046;49.558;8.674;2022-11-04T11:39:57;13.10;95.40
21770;DHT22;11046;49.558;8.674;2022-11-04T11:42:58;13.20;95.20
21770;DHT22;11046;49.558;8.674;2022-11-04T11:46:00;13.30;95.00
21770;DHT22;11046;49.558;8.674;2022-11-04T11:49:04;13.40;94.80
21770;DHT22;11046;49.558;8.674;2022-11-04T11:55:25;13.60;94.50
21770;DHT22;11046;49.558;8.674;2022-11-04T11:58:36;13.70;94.30
21770;DHT22;11046;49.558;8.674;2022-11-04T12:01:45;13.70;94.10
21770;DHT22;11046;49.558;8.674;2022-11-04T12:04:46;13.80;94.00
21770;DHT22;11046;49.558;8.674;2022-11-04T12:07:57;13.90;93.80
21770;DHT22;11046;49.558;8.674;2022-11-04T12:11:18;13.90;93.50
21770;DHT22;11046;49.558;8.674;2022-11-04T12:21:12;13.90;93.40
21770;DHT22;11046;49.558;8.674;2022-11-04T12:27:39;14.20;93.40
21770;DHT22;11046;49.558;8.674;2022-11-04T12:31:10;14.10;93.10
21770;DHT22;11046;49.558;8.674;2022-11-04T12:34:36;14.00;93.20
21770;DHT22;11046;49.558;8.674;2022-11-04T12:45:17;14.30;92.70
21770;DHT22;11046;49.558;8.674;2022-11-04T12:56:10;14.20;92.70
21770;DHT22;11046;49.558;8.674;2022-11-04T13:02:48;14.10;92.70
21770;DHT22;11046;49.558;8.674;2022-11-04T13:06:01;13.90;92.80
21770;DHT22;11046;49.558;8.674;2022-11-04T13:12:44;13.80;92.90
21770;DHT22;11046;49.558;8.674;2022-11-04T13:15:54;13.60;93.00
21770;DHT22;11046;49.558;8.674;2022-11-04T13:18:57;13.50;93.10
21770;DHT22;11046;49.558;8.674;2022-11-04T13:22:07;13.40;93.10
21770;DHT22;11046;49.558;8.674;2022-11-04T13:25:51;13.40;93.10
21770;DHT22;11046;49.558;8.674;2022-11-04T13:28:51;13.30;93.00
21770;DHT22;11046;49.558;8.674;2022-11-04T13:32:25;13.40;93.10
21770;DHT22;11046;49.558;8.674;2022-11-04T13:35:42;13.20;93.00
21770;DHT22;11046;49.558;8.674;2022-11-04T13:39:21;13.30;93.30
21770;DHT22;11046;49.558;8.674;2022-11-04T13:42:32;13.20;93.50
21770;DHT22;11046;49.558;8.674;2022-11-04T13:45:54;13.20;93.60
21770;DHT22;11046;49.558;8.674;2022-11-04T13:49:14;13.30;93.80
21770;DHT22;11046;49.558;8.674;2022-11-04T13:52:18;13.40;93.70
21770;DHT22;11046;49.558;8.674;2022-11-04T13:55:19;13.50;93.70
21770;DHT22;11046;49.558;8.674;2022-11-04T13:58:24;13.50;93.70
21770;DHT22;11046;49.558;8.674;2022-11-04T14:01:28;13.60;93.60
21770;DHT22;11046;49.558;8.674;2022-11-04T14:04:30;13.70;93.40
21770;DHT22;11046;49.558;8.674;2022-11-04T14:11:08;13.80;93.10
21770;DHT22;11046;49.558;8.674;2022-11-04T14:14:16;13.70;93.10
21770;DHT22;11046;49.558;8.674;2022-11-04T14:20:34;13.70;92.90
21770;DHT22;11046;49.558;8.674;2022-11-04T14:23:38;13.70;93.00
21770;DHT22;11046;49.558;8.674;2022-11-04T14:26:42;13.60;92.80
21770;DHT22;11046;49.558;8.674;2022-11-04T14:29:49;13.50;92.70
21770;DHT22;11046;49.558;8.674;2022-11-04T14:32:55;13.40;93.10
21770;DHT22;11046;49.558;8.674;2022-11-04T14:39:23;13.40;92.50
21770;DHT22;11046;49.558;8.674;2022-11-04T14:42:49;13.30;92.50
21770;DHT22;11046;49.558;8.674;2022-11-04T14:45:50;13.30;92.50
21770;DHT22;11046;49.558;8.674;2022-11-04T14:48:53;13.20;92.50
21770;DHT22;11046;49.558;8.674;2022-11-04T14:51:55;13.20;92.60
21770;DHT22;11046;49.558;8.674;2022-11-04T14:55:05;13.10;92.60
21770;DHT22;11046;49.558;8.674;2022-11-04T14:58:26;13.00;92.60
21770;DHT22;11046;49.558;8.674;2022-11-04T15:01:29;13.00;92.50
21770;DHT22;11046;49.558;8.674;2022-11-04T15:04:30;13.00;92.60
21770;DHT22;11046;49.558;8.674;2022-11-04T15:07:36;13.00;92.60
21770;DHT22;11046;49.558;8.674;2022-11-04T15:10:36;13.00;92.60
21770;DHT22;11046;49.558;8.674;2022-11-04T15:13:47;13.00;92.50
21770;DHT22;11046;49.558;8.674;2022-11-04T15:16:53;12.90;92.60
21770;DHT22;11046;49.558;8.674;2022-11-04T15:19:56;12.90;92.70
21770;DHT22;11046;49.558;8.674;2022-11-04T15:23:01;12.80;92.80
21770;DHT22;11046;49.558;8.674;2022-11-04T15:26:03;12.70;92.80
21770;DHT22;11046;49.558;8.674;2022-11-04T15:29:09;12.70;92.90
21770;DHT22;11046;49.558;8.674;2022-11-04T15:32:15;12.60;93.00
21770;DHT22;11046;49.558;8.674;2022-11-04T15:35:16;12.50;93.10
21770;DHT22;11046;49.558;8.674;2022-11-04T15:38:17;12.30;93.10
21770;DHT22;11046;49.558;8.674;2022-11-04T15:41:19;12.30;93.30
21770;DHT22;11046;49.558;8.674;2022-11-04T15:44:44;12.20;93.40
21770;DHT22;11046;49.558;8.674;2022-11-04T15:47:45;12.20;93.50
21770;DHT22;11046;49.558;8.674;2022-11-04T15:50:46;12.00;93.60
21770;DHT22;11046;49.558;8.674;2022-11-04T15:54:02;11.90;93.90
21770;DHT22;11046;49.558;8.674;2022-11-04T15:57:12;11.90;94.20
21770;DHT22;11046;49.558;8.674;2022-11-04T16:03:17;11.80;94.50
21770;DHT22;11046;49.558;8.674;2022-11-04T16:06:32;11.80;94.80
21770;DHT22;11046;49.558;8.674;2022-11-04T16:09:48;11.70;95.00
21770;DHT22;11046;49.558;8.674;2022-11-04T16:12:53;11.70;95.20
21770;DHT22;11046;49.558;8.674;2022-11-04T16:18:59;11.50;95.40
21770;DHT22;11046;49.558;8.674;2022-11-04T16:22:05;11.50;95.80
21770;DHT22;11046;49.558;8.674;2022-11-04T16:25:19;11.40;95.60
21770;DHT22;11046;49.558;8.674;2022-11-04T16:28:21;11.30;95.70
21770;DHT22;11046;49.558;8.674;2022-11-04T16:31:24;11.30;95.70
21770;DHT22;11046;49.558;8.674;2022-11-04T16:34:24;11.30;95.80
21770;DHT22;11046;49.558;8.674;2022-11-04T16:37:26;11.30;95.70
21770;DHT22;11046;49.558;8.674;2022-11-04T16:40:27;11.30;95.80
21770;DHT22;11046;49.558;8.674;2022-11-04T16:43:27;11.30;95.80
21770;DHT22;11046;49.558;8.674;2022-11-04T16:46:28;11.30;95.80
21770;DHT22;11046;49.558;8.674;2022-11-04T16:49:29;11.30;95.80
21770;DHT22;11046;49.558;8.674;2022-11-04T16:52:30;11.30;95.70
21770;DHT22;11046;49.558;8.674;2022-11-04T16:55:30;11.30;95.80
21770;DHT22;11046;49.558;8.674;2022-11-04T16:58:31;11.30;95.80
21770;DHT22;11046;49.558;8.674;2022-11-04T17:01:33;11.20;95.90
21770;DHT22;11046;49.558;8.674;2022-11-04T17:04:33;11.20;96.10
21770;DHT22;11046;49.558;8.674;2022-11-04T17:07:37;11.20;96.20
21770;DHT22;11046;49.558;8.674;2022-11-04T17:10:38;11.10;96.30
21770;DHT22;11046;49.558;8.674;2022-11-04T17:13:38;11.10;96.20
21770;DHT22;11046;49.558;8.674;2022-11-04T17:16:39;11.10;96.30
21770;DHT22;11046;49.558;8.674;2022-11-04T17:19:40;11.00;96.40
21770;DHT22;11046;49.558;8.674;2022-11-04T17:22:40;11.00;96.50
21770;DHT22;11046;49.558;8.674;2022-11-04T17:25:43;11.00;96.90
21770;DHT22;11046;49.558;8.674;2022-11-04T17:28:43;11.00;96.60
21770;DHT22;11046;49.558;8.674;2022-11-04T17:31:44;11.00;96.70
21770;DHT22;11046;49.558;8.674;2022-11-04T17:34:45;10.90;96.90
21770;DHT22;11046;49.558;8.674;2022-11-04T17:37:46;10.90;97.00
21770;DHT22;11046;49.558;8.674;2022-11-04T17:40:46;11.00;97.00
21770;DHT22;11046;49.558;8.674;2022-11-04T17:44:06;10.90;97.00
21770;DHT22;11046;49.558;8.674;2022-11-04T17:47:06;10.90;97.10
21770;DHT22;11046;49.558;8.674;2022-11-04T17:50:07;10.90;97.30
21770;DHT22;11046;49.558;8.674;2022-11-04T17:53:08;10.80;97.30
21770;DHT22;11046;49.558;8.674;2022-11-04T17:56:15;10.80;97.30
21770;DHT22;11046;49.558;8.674;2022-11-04T17:59:17;10.90;97.40
21770;DHT22;11046;49.558;8.674;2022-11-04T18:02:17;10.80;97.30
21770;DHT22;11046;49.558;8.674;2022-11-04T18:05:18;10.90;97.40
21770;DHT22;11046;49.558;8.674;2022-11-04T18:08:18;10.80;97.40
21770;DHT22;11046;49.558;8.674;2022-11-04T18:11:20;10.80;97.50
21770;DHT22;11046;49.558;8.674;2022-11-04T18:14:39;10.80;97.60
21770;DHT22;11046;49.558;8.674;2022-11-04T18:17:41;10.70;97.60
21770;DHT22;11046;49.558;8.674;2022-11-04T18:20:42;10.70;98.10
21770;DHT22;11046;49.558;8.674;2022-11-04T18:23:43;10.70;97.80
21770;DHT22;11046;49.558;8.674;2022-11-04T18:26:43;10.70;97.80
21770;DHT22;11046;49.558;8.674;2022-11-04T18:29:45;10.70;97.90
21770;DHT22;11046;49.558;8.674;2022-11-04T18:32:45;10.70;98.00
21770;DHT22;11046;49.558;8.674;2022-11-04T18:35:46;10.70;97.90
21770;DHT22;11046;49.558;8.674;2022-11-04T18:38:46;10.70;98.00
21770;DHT22;11046;49.558;8.674;2022-11-04T18:41:47;10.70;98.00
21770;DHT22;11046;49.558;8.674;2022-11-04T18:44:48;10.60;98.00
21770;DHT22;11046;49.558;8.674;2022-11-04T18:47:49;10.60;98.00
21770;DHT22;11046;49.558;8.674;2022-11-04T18:50:51;10.60;98.10
21770;DHT22;11046;49.558;8.674;2022-11-04T18:53:52;10.60;98.20
21770;DHT22;11046;49.558;8.674;2022-11-04T18:56:53;10.60;98.70
21770;DHT22;11046;49.558;8.674;2022-11-04T18:59:53;10.60;98.30
21770;DHT22;11046;49.558;8.674;2022-11-04T19:02:54;10.70;98.30
21770;DHT22;11046;49.558;8.674;2022-11-04T19:06:07;10.60;98.30
21770;DHT22;11046;49.558;8.674;2022-11-04T19:09:10;10.60;98.30
21770;DHT22;11046;49.558;8.674;2022-11-04T19:12:11;10.50;98.40
21770;DHT22;11046;49.558;8.674;2022-11-04T19:15:32;10.50;98.50
21770;DHT22;11046;49.558;8.674;2022-11-04T19:18:34;10.40;98.60
21770;DHT22;11046;49.558;8.674;2022-11-04T19:21:34;10.40;98.70
21770;DHT22;11046;49.558;8.674;2022-11-04T19:24:35;10.50;98.70
21770;DHT22;11046;49.558;8.674;2022-11-04T19:27:36;10.40;98.70
21770;DHT22;11046;49.558;8.674;2022-11-04T19:30:36;10.40;98.70
21770;DHT22;11046;49.558;8.674;2022-11-04T19:33:37;10.40;98.70
21770;DHT22;11046;49.558;8.674;2022-11-04T19:36:39;10.40;98.70
21770;DHT22;11046;49.558;8.674;2022-11-04T19:39:39;10.50;98.70
21770;DHT22;11046;49.558;8.674;2022-11-04T19:42:40;10.40;98.60
21770;DHT22;11046;49.558;8.674;2022-11-04T19:46:05;10.40;98.60
21770;DHT22;11046;49.558;8.674;2022-11-04T19:49:08;10.40;98.60
21770;DHT22;11046;49.558;8.674;2022-11-04T19:52:08;10.40;98.60
21770;DHT22;11046;49.558;8.674;2022-11-04T19:55:09;10.30;98.70
21770;DHT22;11046;49.558;8.674;2022-11-04T19:58:10;10.30;98.80
21770;DHT22;11046;49.558;8.674;2022-11-04T20:01:12;10.30;98.90
21770;DHT22;11046;49.558;8.674;2022-11-04T20:04:18;10.40;98.90
21770;DHT22;11046;49.558;8.674;2022-11-04T20:07:18;10.40;98.90
21770;DHT22;11046;49.558;8.674;2022-11-04T20:10:22;10.50;98.90
21770;DHT22;11046;49.558;8.674;2022-11-04T20:13:23;10.40;99.00
21770;DHT22;11046;49.558;8.674;2022-11-04T20:16:42;10.40;99.00
21770;DHT22;11046;49.558;8.674;2022-11-04T20:19:42;10.50;99.10
21770;DHT22;11046;49.558;8.674;2022-11-04T20:22:43;10.40;99.10
21770;DHT22;11046;49.558;8.674;2022-11-04T20:25:43;10.50;99.10
21770;DHT22;11046;49.558;8.674;2022-11-04T20:28:45;10.50;99.10
21770;DHT22;11046;49.558;8.674;2022-11-04T20:31:45;10.50;99.20
21770;DHT22;11046;49.558;8.674;2022-11-04T20:34:47;10.50;99.20
21770;DHT22;11046;49.558;8.674;2022-11-04T20:37:47;10.50;99.20
21770;DHT22;11046;49.558;8.674;2022-11-04T20:40:49;10.50;99.20
21770;DHT22;11046;49.558;8.674;2022-11-04T20:43:50;10.50;99.20
21770;DHT22;11046;49.558;8.674;2022-11-04T20:46:51;10.50;99.20
21770;DHT22;11046;49.558;8.674;2022-11-04T20:49:51;10.40;99.30
21770;DHT22;11046;49.558;8.674;2022-11-04T20:52:53;10.40;99.30
21770;DHT22;11046;49.558;8.674;2022-11-04T20:55:53;10.40;99.30
21770;DHT22;11046;49.558;8.674;2022-11-04T20:58:55;10.40;99.20
21770;DHT22;11046;49.558;8.674;2022-11-04T21:01:55;10.40;99.30
21770;DHT22;11046;49.558;8.674;2022-11-04T21:04:56;10.40;99.30
21770;DHT22;11046;49.558;8.674;2022-11-04T21:07:57;10.40;99.20
21770;DHT22;11046;49.558;8.674;2022-11-04T21:10:57;10.40;99.30
21770;DHT22;11046;49.558;8.674;2022-11-04T21:13:58;10.40;99.30
21770;DHT22;11046;49.558;8.674;2022-11-04T21:17:03;10.40;99.30
21770;DHT22;11046;49.558;8.674;2022-11-04T21:20:05;10.30;99.30
21770;DHT22;11046;49.558;8.674;2022-11-04T21:23:05;10.30;99.40